sensor_id;sensor_type;location;lat;lon;timestamp;temperature;humidity
19734;DHT22;10018;51.230;7.860;2024-02-21T00:00:53;8.20;99.90
19734;DHT22;10018;51.230;7.860;2024-02-21T00:03:18;8.10;99.90
19734;DHT22;10018;51.230;7.860;2024-02-21T00:05:45;8.10;99.90
19734;DHT22;10018;51.230;7.860;2024-02-21T00:08:10;8.10;99.90
19734;DHT22;10018;51.230;7.860;2024-02-21T00:10:36;8.10;99.90
19734;DHT22;10018;51.230;7.860;2024-02-21T00:13:04;8.10;99.90
19734;DHT22;10018;51.230;7.860;2024-02-21T00:15:29;8.10;99.90
19734;DHT22;10018;51.230;7.860;2024-02-21T00:17:55;8.00;99.90
19734;DHT22;10018;51.230;7.860;2024-02-21T00:20:20;8.00;99.90
19734;DHT22;10018;51.230;7.860;2024-02-21T00:22:46;8.00;99.90
19734;DHT22;10018;51.230;7.860;2024-02-21T00:25:12;7.90;99.90
19734;DHT22;10018;51.230;7.860;2024-02-21T00:27:38;8.00;99.90
19734;DHT22;10018;51.230;7.860;2024-02-21T00:30:05;7.90;99.90
19734;DHT22;10018;51.230;7.860;2024-02-21T00:32:33;7.90;99.90
19734;DHT22;10018;51.230;7.860;2024-02-21T00:35:02;8.00;99.90
19734;DHT22;10018;51.230;7.860;2024-02-21T00:37:27;8.00;99.90
19734;DHT22;10018;51.230;7.860;2024-02-21T00:39:54;8.00;99.90
19734;DHT22;10018;51.230;7.860;2024-02-21T00:42:22;8.00;99.90
19734;DHT22;10018;51.230;7.860;2024-02-21T00:44:48;8.00;99.90
19734;DHT22;10018;51.230;7.860;2024-02-21T00:47:13;8.00;99.90
19734;DHT22;10018;51.230;7.860;2024-02-21T00:49:39;8.00;99.90
19734;DHT22;10018;51.230;7.860;2024-02-21T00:52:07;7.90;99.90
19734;DHT22;10018;51.230;7.860;2024-02-21T00:54:33;8.00;99.90
19734;DHT22;10018;51.230;7.860;2024-02-21T00:56:58;8.00;99.90
19734;DHT22;10018;51.230;7.860;2024-02-21T00:59:24;8.00;99.90
19734;DHT22;10018;51.230;7.860;2024-02-21T01:01:49;7.90;99.90
19734;DHT22;10018;51.230;7.860;2024-02-21T01:04:15;7.90;99.90
19734;DHT22;10018;51.230;7.860;2024-02-21T01:06:40;7.90;99.90
19734;DHT22;10018;51.230;7.860;2024-02-21T01:09:09;7.90;99.90
19734;DHT22;10018;51.230;7.860;2024-02-21T01:11:37;7.90;99.90
19734;DHT22;10018;51.230;7.860;2024-02-21T01:14:03;7.90;99.90
19734;DHT22;10018;51.230;7.860;2024-02-21T01:16:28;7.90;99.90
19734;DHT22;10018;51.230;7.860;2024-02-21T01:18:54;7.90;99.90
19734;DHT22;10018;51.230;7.860;2024-02-21T01:21:20;7.90;99.90
19734;DHT22;10018;51.230;7.860;2024-02-21T01:23:45;7.90;99.90
19734;DHT22;10018;51.230;7.860;2024-02-21T01:26:11;7.90;99.90
19734;DHT22;10018;51.230;7.860;2024-02-21T01:28:39;7.90;99.90
19734;DHT22;10018;51.230;7.860;2024-02-21T01:31:05;7.90;99.90
19734;DHT22;10018;51.230;7.860;2024-02-21T01:33:31;8.00;99.90
19734;DHT22;10018;51.230;7.860;2024-02-21T01:36:01;7.90;99.90
19734;DHT22;10018;51.230;7.860;2024-02-21T01:38:28;7.90;99.90
19734;DHT22;10018;51.230;7.860;2024-02-21T01:40:53;7.90;99.90
19734;DHT22;10018;51.230;7.860;2024-02-21T01:43:20;7.90;99.90
19734;DHT22;10018;51.230;7.860;2024-02-21T01:45:50;7.90;99.90
19734;DHT22;10018;51.230;7.860;2024-02-21T01:48:17;7.90;99.90
19734;DHT22;10018;51.230;7.860;2024-02-21T01:50:45;7.90;99.90
19734;DHT22;10018;51.230;7.860;2024-02-21T01:53:11;7.90;99.90
19734;DHT22;10018;51.230;7.860;2024-02-21T01:55:44;7.90;99.90
19734;DHT22;10018;51.230;7.860;2024-02-21T01:58:09;7.90;99.90
19734;DHT22;10018;51.230;7.860;2024-02-21T02:00:36;7.90;99.90
19734;DHT22;10018;51.230;7.860;2024-02-21T02:03:04;7.90;99.90
19734;DHT22;10018;51.230;7.860;2024-02-21T02:05:29;7.90;99.90
19734;DHT22;10018;51.230;7.860;2024-02-21T02:07:57;7.90;99.90
19734;DHT22;10018;51.230;7.860;2024-02-21T02:10:23;8.00;99.90
19734;DHT22;10018;51.230;7.860;2024-02-21T02:12:49;8.00;99.90
19734;DHT22;10018;51.230;7.860;2024-02-21T02:15:14;8.00;99.90
19734;DHT22;10018;51.230;7.860;2024-02-21T02:17:40;8.00;99.90
19734;DHT22;10018;51.230;7.860;2024-02-21T02:20:06;8.10;99.90
19734;DHT22;10018;51.230;7.860;2024-02-21T02:22:33;8.00;99.90
19734;DHT22;10018;51.230;7.860;2024-02-21T02:25:03;8.00;99.90
19734;DHT22;10018;51.230;7.860;2024-02-21T02:27:29;8.00;99.90
19734;DHT22;10018;51.230;7.860;2024-02-21T02:29:54;8.00;99.90
19734;DHT22;10018;51.230;7.860;2024-02-21T02:32:20;8.00;99.90
19734;DHT22;10018;51.230;7.860;2024-02-21T02:34:46;8.10;99.90
19734;DHT22;10018;51.230;7.860;2024-02-21T02:37:11;8.10;99.90
19734;DHT22;10018;51.230;7.860;2024-02-21T02:39:37;8.00;99.90
19734;DHT22;10018;51.230;7.860;2024-02-21T02:42:02;8.00;99.90
19734;DHT22;10018;51.230;7.860;2024-02-21T02:44:28;8.00;99.90
19734;DHT22;10018;51.230;7.860;2024-02-21T02:46:54;8.10;99.90
19734;DHT22;10018;51.230;7.860;2024-02-21T02:49:19;8.10;99.90
19734;DHT22;10018;51.230;7.860;2024-02-21T02:51:45;8.10;99.90
19734;DHT22;10018;51.230;7.860;2024-02-21T02:54:11;8.10;99.90
19734;DHT22;10018;51.230;7.860;2024-02-21T02:56:37;8.00;99.90
19734;DHT22;10018;51.230;7.860;2024-02-21T02:59:02;8.10;99.90
19734;DHT22;10018;51.230;7.860;2024-02-21T03:01:28;8.00;99.90
19734;DHT22;10018;51.230;7.860;2024-02-21T03:03:54;8.00;99.90
19734;DHT22;10018;51.230;7.860;2024-02-21T03:06:19;8.10;99.90
19734;DHT22;10018;51.230;7.860;2024-02-21T03:08:45;8.00;99.90
19734;DHT22;10018;51.230;7.860;2024-02-21T03:11:11;8.00;99.90
19734;DHT22;10018;51.230;7.860;2024-02-21T03:13:37;8.00;99.90
19734;DHT22;10018;51.230;7.860;2024-02-21T03:16:02;8.10;99.90
19734;DHT22;10018;51.230;7.860;2024-02-21T03:18:28;8.10;99.90
19734;DHT22;10018;51.230;7.860;2024-02-21T03:20:54;8.10;99.90
19734;DHT22;10018;51.230;7.860;2024-02-21T03:23:19;8.10;99.90
19734;DHT22;10018;51.230;7.860;2024-02-21T03:25:45;8.10;99.90
19734;DHT22;10018;51.230;7.860;2024-02-21T03:28:11;8.10;99.90
19734;DHT22;10018;51.230;7.860;2024-02-21T03:30:36;8.00;99.90
19734;DHT22;10018;51.230;7.860;2024-02-21T03:33:02;8.00;99.90
19734;DHT22;10018;51.230;7.860;2024-02-21T03:35:28;8.00;99.90
19734;DHT22;10018;51.230;7.860;2024-02-21T03:37:54;8.00;99.90
19734;DHT22;10018;51.230;7.860;2024-02-21T03:40:19;7.90;99.90
19734;DHT22;10018;51.230;7.860;2024-02-21T03:42:45;8.00;99.90
19734;DHT22;10018;51.230;7.860;2024-02-21T03:45:11;8.00;99.90
19734;DHT22;10018;51.230;7.860;2024-02-21T03:47:36;8.00;99.90
19734;DHT22;10018;51.230;7.860;2024-02-21T03:50:02;8.00;99.90
19734;DHT22;10018;51.230;7.860;2024-02-21T03:52:27;8.00;99.90
19734;DHT22;10018;51.230;7.860;2024-02-21T03:54:53;8.00;99.90
19734;DHT22;10018;51.230;7.860;2024-02-21T03:57:20;8.10;99.90
19734;DHT22;10018;51.230;7.860;2024-02-21T03:59:46;8.10;99.90
19734;DHT22;10018;51.230;7.860;2024-02-21T04:02:14;8.00;99.90
19734;DHT22;10018;51.230;7.860;2024-02-21T04:04:46;8.00;99.90
19734;DHT22;10018;51.230;7.860;2024-02-21T04:07:13;8.00;99.90
19734;DHT22;10018;51.230;7.860;2024-02-21T04:09:38;8.00;99.90
19734;DHT22;10018;51.230;7.860;2024-02-21T04:12:04;8.00;99.90
19734;DHT22;10018;51.230;7.860;2024-02-21T04:14:30;8.10;99.90
19734;DHT22;10018;51.230;7.860;2024-02-21T04:16:55;8.10;99.90
19734;DHT22;10018;51.230;7.860;2024-02-21T04:19:21;8.10;99.90
19734;DHT22;10018;51.230;7.860;2024-02-21T04:21:47;8.10;99.90
19734;DHT22;10018;51.230;7.860;2024-02-21T04:24:12;8.10;99.90
19734;DHT22;10018;51.230;7.860;2024-02-21T04:26:40;8.00;99.90
19734;DHT22;10018;51.230;7.860;2024-02-21T04:29:06;8.00;99.90
19734;DHT22;10018;51.230;7.860;2024-02-21T04:31:34;8.00;99.90
19734;DHT22;10018;51.230;7.860;2024-02-21T04:34:00;8.00;99.90
19734;DHT22;10018;51.230;7.860;2024-02-21T04:36:25;7.90;99.90
19734;DHT22;10018;51.230;7.860;2024-02-21T04:38:51;7.90;99.90
19734;DHT22;10018;51.230;7.860;2024-02-21T04:41:17;7.90;99.90
19734;DHT22;10018;51.230;7.860;2024-02-21T04:43:42;7.90;99.90
19734;DHT22;10018;51.230;7.860;2024-02-21T04:46:13;7.90;99.90
19734;DHT22;10018;51.230;7.860;2024-02-21T04:48:38;7.90;99.90
19734;DHT22;10018;51.230;7.860;2024-02-21T04:51:04;7.90;99.90
19734;DHT22;10018;51.230;7.860;2024-02-21T04:53:29;7.90;99.90
19734;DHT22;10018;51.230;7.860;2024-02-21T04:55:55;7.80;99.90
19734;DHT22;10018;51.230;7.860;2024-02-21T04:58:21;7.90;99.90
19734;DHT22;10018;51.230;7.860;2024-02-21T05:00:46;8.00;99.90
19734;DHT22;10018;51.230;7.860;2024-02-21T05:03:12;8.10;99.90
19734;DHT22;10018;51.230;7.860;2024-02-21T05:05:37;8.10;99.90
19734;DHT22;10018;51.230;7.860;2024-02-21T05:08:03;8.10;99.90
19734;DHT22;10018;51.230;7.860;2024-02-21T05:10:29;8.10;99.90
19734;DHT22;10018;51.230;7.860;2024-02-21T05:12:54;8.10;99.90
19734;DHT22;10018;51.230;7.860;2024-02-21T05:15:20;8.10;99.90
19734;DHT22;10018;51.230;7.860;2024-02-21T05:17:45;8.10;99.90
19734;DHT22;10018;51.230;7.860;2024-02-21T05:20:11;8.10;99.90
19734;DHT22;10018;51.230;7.860;2024-02-21T05:22:37;8.10;99.90
19734;DHT22;10018;51.230;7.860;2024-02-21T05:25:02;8.10;99.90
19734;DHT22;10018;51.230;7.860;2024-02-21T05:27:28;8.10;99.90
19734;DHT22;10018;51.230;7.860;2024-02-21T05:29:56;8.10;99.90
19734;DHT22;10018;51.230;7.860;2024-02-21T05:32:21;8.10;99.90
19734;DHT22;10018;51.230;7.860;2024-02-21T05:34:50;8.10;99.90
19734;DHT22;10018;51.230;7.860;2024-02-21T05:37:18;8.00;99.90
19734;DHT22;10018;51.230;7.860;2024-02-21T05:39:44;8.00;99.90
19734;DHT22;10018;51.230;7.860;2024-02-21T05:42:09;8.00;99.90
19734;DHT22;10018;51.230;7.860;2024-02-21T05:44:35;8.00;99.90
19734;DHT22;10018;51.230;7.860;2024-02-21T05:47:00;8.00;99.90
19734;DHT22;10018;51.230;7.860;2024-02-21T05:49:26;8.00;99.90
19734;DHT22;10018;51.230;7.860;2024-02-21T05:51:51;8.00;99.90
19734;DHT22;10018;51.230;7.860;2024-02-21T05:54:17;8.00;99.90
19734;DHT22;10018;51.230;7.860;2024-02-21T05:56:46;8.00;99.90
19734;DHT22;10018;51.230;7.860;2024-02-21T05:59:12;8.00;99.90
19734;DHT22;10018;51.230;7.860;2024-02-21T06:01:37;8.00;99.90
19734;DHT22;10018;51.230;7.860;2024-02-21T06:04:05;8.00;99.90
19734;DHT22;10018;51.230;7.860;2024-02-21T06:06:31;8.00;99.90
19734;DHT22;10018;51.230;7.860;2024-02-21T06:08:56;8.00;99.90
19734;DHT22;10018;51.230;7.860;2024-02-21T06:11:24;8.00;99.90
19734;DHT22;10018;51.230;7.860;2024-02-21T06:13:49;8.00;99.90
19734;DHT22;10018;51.230;7.860;2024-02-21T06:16:15;8.00;99.90
19734;DHT22;10018;51.230;7.860;2024-02-21T06:18:40;8.00;99.90
19734;DHT22;10018;51.230;7.860;2024-02-21T06:21:06;7.90;99.90
19734;DHT22;10018;51.230;7.860;2024-02-21T06:23:32;7.90;99.90
19734;DHT22;10018;51.230;7.860;2024-02-21T06:25:57;7.90;99.90
19734;DHT22;10018;51.230;7.860;2024-02-21T06:28:23;8.00;99.90
19734;DHT22;10018;51.230;7.860;2024-02-21T06:30:51;8.00;99.90
19734;DHT22;10018;51.230;7.860;2024-02-21T06:33:19;7.90;99.90
19734;DHT22;10018;51.230;7.860;2024-02-21T06:35:50;8.00;99.90
19734;DHT22;10018;51.230;7.860;2024-02-21T06:38:18;8.00;99.90
19734;DHT22;10018;51.230;7.860;2024-02-21T06:40:44;8.00;99.90
19734;DHT22;10018;51.230;7.860;2024-02-21T06:43:15;8.00;99.90
19734;DHT22;10018;51.230;7.860;2024-02-21T06:45:40;8.00;99.90
19734;DHT22;10018;51.230;7.860;2024-02-21T06:48:06;8.00;99.90
19734;DHT22;10018;51.230;7.860;2024-02-21T06:50:32;7.90;99.90
19734;DHT22;10018;51.230;7.860;2024-02-21T06:52:57;7.90;99.90
19734;DHT22;10018;51.230;7.860;2024-02-21T06:55:23;7.90;99.90
19734;DHT22;10018;51.230;7.860;2024-02-21T06:57:51;7.90;99.90
19734;DHT22;10018;51.230;7.860;2024-02-21T07:00:17;8.00;99.90
19734;DHT22;10018;51.230;7.860;2024-02-21T07:02:42;8.00;99.90
19734;DHT22;10018;51.230;7.860;2024-02-21T07:05:08;7.90;99.90
19734;DHT22;10018;51.230;7.860;2024-02-21T07:07:34;8.00;99.90
19734;DHT22;10018;51.230;7.860;2024-02-21T07:10:00;8.00;99.90
19734;DHT22;10018;51.230;7.860;2024-02-21T07:12:26;8.00;99.90
19734;DHT22;10018;51.230;7.860;2024-02-21T07:14:51;8.10;99.90
19734;DHT22;10018;51.230;7.860;2024-02-21T07:17:17;8.00;99.90
19734;DHT22;10018;51.230;7.860;2024-02-21T07:19:43;8.10;99.90
19734;DHT22;10018;51.230;7.860;2024-02-21T07:22:08;8.10;99.90
19734;DHT22;10018;51.230;7.860;2024-02-21T07:24:34;8.20;99.90
19734;DHT22;10018;51.230;7.860;2024-02-21T07:27:02;8.20;99.90
19734;DHT22;10018;51.230;7.860;2024-02-21T07:29:30;8.20;99.90
19734;DHT22;10018;51.230;7.860;2024-02-21T07:31:56;8.20;99.90
19734;DHT22;10018;51.230;7.860;2024-02-21T07:34:24;8.20;99.90
19734;DHT22;10018;51.230;7.860;2024-02-21T07:36:49;8.20;99.90
19734;DHT22;10018;51.230;7.860;2024-02-21T07:39:15;8.20;99.90
19734;DHT22;10018;51.230;7.860;2024-02-21T07:41:41;8.20;99.90
19734;DHT22;10018;51.230;7.860;2024-02-21T07:44:10;8.20;99.90
19734;DHT22;10018;51.230;7.860;2024-02-21T07:46:35;8.30;99.90
19734;DHT22;10018;51.230;7.860;2024-02-21T07:49:01;8.20;99.90
19734;DHT22;10018;51.230;7.860;2024-02-21T07:51:28;8.30;99.90
19734;DHT22;10018;51.230;7.860;2024-02-21T07:53:53;8.30;99.90
19734;DHT22;10018;51.230;7.860;2024-02-21T07:56:19;8.30;99.90
19734;DHT22;10018;51.230;7.860;2024-02-21T07:58:44;8.30;99.90
19734;DHT22;10018;51.230;7.860;2024-02-21T08:01:10;8.40;99.90
19734;DHT22;10018;51.230;7.860;2024-02-21T08:03:36;8.50;99.90
19734;DHT22;10018;51.230;7.860;2024-02-21T08:06:03;8.50;99.90
19734;DHT22;10018;51.230;7.860;2024-02-21T08:08:29;8.50;99.90
19734;DHT22;10018;51.230;7.860;2024-02-21T08:10:54;8.70;99.90
19734;DHT22;10018;51.230;7.860;2024-02-21T08:13:20;8.70;99.90
19734;DHT22;10018;51.230;7.860;2024-02-21T08:15:46;8.70;99.90
19734;DHT22;10018;51.230;7.860;2024-02-21T08:18:11;8.70;99.90
19734;DHT22;10018;51.230;7.860;2024-02-21T08:20:37;8.70;99.90
19734;DHT22;10018;51.230;7.860;2024-02-21T08:23:03;8.70;99.90
19734;DHT22;10018;51.230;7.860;2024-02-21T08:25:28;8.80;99.90
19734;DHT22;10018;51.230;7.860;2024-02-21T08:27:58;8.80;99.90
19734;DHT22;10018;51.230;7.860;2024-02-21T08:30:26;8.70;99.90
19734;DHT22;10018;51.230;7.860;2024-02-21T08:32:52;8.70;99.90
19734;DHT22;10018;51.230;7.860;2024-02-21T08:35:19;8.60;99.90
19734;DHT22;10018;51.230;7.860;2024-02-21T08:37:47;8.60;99.90
19734;DHT22;10018;51.230;7.860;2024-02-21T08:40:13;8.50;99.90
19734;DHT22;10018;51.230;7.860;2024-02-21T08:42:43;8.70;99.90
19734;DHT22;10018;51.230;7.860;2024-02-21T08:45:09;8.70;99.90
19734;DHT22;10018;51.230;7.860;2024-02-21T08:47:34;8.70;99.90
19734;DHT22;10018;51.230;7.860;2024-02-21T08:50:03;8.80;99.90
19734;DHT22;10018;51.230;7.860;2024-02-21T08:52:29;8.70;99.90
19734;DHT22;10018;51.230;7.860;2024-02-21T08:54:54;8.70;99.90
19734;DHT22;10018;51.230;7.860;2024-02-21T08:57:20;8.70;99.90
19734;DHT22;10018;51.230;7.860;2024-02-21T08:59:46;8.60;99.90
19734;DHT22;10018;51.230;7.860;2024-02-21T09:02:13;8.60;99.90
19734;DHT22;10018;51.230;7.860;2024-02-21T09:04:38;8.70;99.90
19734;DHT22;10018;51.230;7.860;2024-02-21T09:07:04;8.70;99.90
19734;DHT22;10018;51.230;7.860;2024-02-21T09:09:29;8.70;99.90
19734;DHT22;10018;51.230;7.860;2024-02-21T09:11:55;8.80;99.90
19734;DHT22;10018;51.230;7.860;2024-02-21T09:14:21;8.70;99.90
19734;DHT22;10018;51.230;7.860;2024-02-21T09:16:47;8.80;99.90
19734;DHT22;10018;51.230;7.860;2024-02-21T09:19:13;8.90;99.90
19734;DHT22;10018;51.230;7.860;2024-02-21T09:21:38;8.80;99.90
19734;DHT22;10018;51.230;7.860;2024-02-21T09:24:05;8.70;99.90
19734;DHT22;10018;51.230;7.860;2024-02-21T09:26:31;8.70;99.90
19734;DHT22;10018;51.230;7.860;2024-02-21T09:28:57;8.60;99.90
19734;DHT22;10018;51.230;7.860;2024-02-21T09:31:22;8.60;99.90
19734;DHT22;10018;51.230;7.860;2024-02-21T09:33:48;8.50;99.90
19734;DHT22;10018;51.230;7.860;2024-02-21T09:36:14;8.40;99.90
19734;DHT22;10018;51.230;7.860;2024-02-21T09:38:40;8.40;99.90
19734;DHT22;10018;51.230;7.860;2024-02-21T09:41:18;8.40;99.90
19734;DHT22;10018;51.230;7.860;2024-02-21T09:43:44;8.40;99.90
19734;DHT22;10018;51.230;7.860;2024-02-21T09:46:17;8.50;99.90
19734;DHT22;10018;51.230;7.860;2024-02-21T09:49:04;8.30;99.90
19734;DHT22;10018;51.230;7.860;2024-02-21T09:51:35;8.30;99.90
19734;DHT22;10018;51.230;7.860;2024-02-21T09:54:02;8.40;99.90
19734;DHT22;10018;51.230;7.860;2024-02-21T09:56:28;8.30;99.90
19734;DHT22;10018;51.230;7.860;2024-02-21T09:58:54;8.30;99.90
19734;DHT22;10018;51.230;7.860;2024-02-21T10:01:20;8.30;99.90
19734;DHT22;10018;51.230;7.860;2024-02-21T10:03:46;8.40;99.90
19734;DHT22;10018;51.230;7.860;2024-02-21T10:06:11;8.30;99.90
19734;DHT22;10018;51.230;7.860;2024-02-21T10:08:37;8.40;99.90
19734;DHT22;10018;51.230;7.860;2024-02-21T10:11:02;8.40;99.90
19734;DHT22;10018;51.230;7.860;2024-02-21T10:13:29;8.40;99.90
19734;DHT22;10018;51.230;7.860;2024-02-21T10:16:15;8.40;99.90
19734;DHT22;10018;51.230;7.860;2024-02-21T10:18:41;8.30;99.90
19734;DHT22;10018;51.230;7.860;2024-02-21T10:21:07;8.30;99.90
19734;DHT22;10018;51.230;7.860;2024-02-21T10:23:43;8.30;99.90
19734;DHT22;10018;51.230;7.860;2024-02-21T10:26:09;8.40;99.90
19734;DHT22;10018;51.230;7.860;2024-02-21T10:28:35;8.40;99.90
19734;DHT22;10018;51.230;7.860;2024-02-21T10:31:00;8.40;99.90
19734;DHT22;10018;51.230;7.860;2024-02-21T10:33:28;8.50;99.90
19734;DHT22;10018;51.230;7.860;2024-02-21T10:36:09;8.50;99.90
19734;DHT22;10018;51.230;7.860;2024-02-21T10:38:38;8.50;99.90
19734;DHT22;10018;51.230;7.860;2024-02-21T10:41:05;8.50;99.90
19734;DHT22;10018;51.230;7.860;2024-02-21T10:43:40;8.40;99.90
19734;DHT22;10018;51.230;7.860;2024-02-21T10:46:09;8.50;99.90
19734;DHT22;10018;51.230;7.860;2024-02-21T10:48:46;8.60;99.90
19734;DHT22;10018;51.230;7.860;2024-02-21T10:53:44;8.70;99.90
19734;DHT22;10018;51.230;7.860;2024-02-21T10:56:28;8.90;99.90
19734;DHT22;10018;51.230;7.860;2024-02-21T10:58:55;8.80;99.90
19734;DHT22;10018;51.230;7.860;2024-02-21T11:01:26;8.80;99.90
19734;DHT22;10018;51.230;7.860;2024-02-21T11:03:53;8.90;99.90
19734;DHT22;10018;51.230;7.860;2024-02-21T11:06:20;9.00;99.90
19734;DHT22;10018;51.230;7.860;2024-02-21T11:09:02;9.10;99.90
19734;DHT22;10018;51.230;7.860;2024-02-21T11:11:28;9.20;99.90
19734;DHT22;10018;51.230;7.860;2024-02-21T11:14:07;9.20;99.90
19734;DHT22;10018;51.230;7.860;2024-02-21T11:16:38;9.20;99.90
19734;DHT22;10018;51.230;7.860;2024-02-21T11:19:20;9.40;99.90
19734;DHT22;10018;51.230;7.860;2024-02-21T11:21:46;9.40;99.90
19734;DHT22;10018;51.230;7.860;2024-02-21T11:24:13;9.60;99.90
19734;DHT22;10018;51.230;7.860;2024-02-21T11:26:40;9.70;99.90
19734;DHT22;10018;51.230;7.860;2024-02-21T11:29:09;9.70;99.90
19734;DHT22;10018;51.230;7.860;2024-02-21T11:31:44;9.80;99.90
19734;DHT22;10018;51.230;7.860;2024-02-21T11:34:11;9.70;99.90
19734;DHT22;10018;51.230;7.860;2024-02-21T11:37:03;9.60;99.90
19734;DHT22;10018;51.230;7.860;2024-02-21T11:39:38;9.60;99.90
19734;DHT22;10018;51.230;7.860;2024-02-21T11:42:05;9.60;99.90
19734;DHT22;10018;51.230;7.860;2024-02-21T11:44:34;9.70;99.90
19734;DHT22;10018;51.230;7.860;2024-02-21T11:46:59;9.80;99.90
19734;DHT22;10018;51.230;7.860;2024-02-21T11:49:26;9.80;99.90
19734;DHT22;10018;51.230;7.860;2024-02-21T11:52:02;9.80;99.90
19734;DHT22;10018;51.230;7.860;2024-02-21T11:54:31;9.90;99.90
19734;DHT22;10018;51.230;7.860;2024-02-21T11:56:57;9.80;99.90
19734;DHT22;10018;51.230;7.860;2024-02-21T11:59:22;9.80;99.90
19734;DHT22;10018;51.230;7.860;2024-02-21T12:01:48;9.70;99.90
19734;DHT22;10018;51.230;7.860;2024-02-21T12:04:15;9.70;99.90
19734;DHT22;10018;51.230;7.860;2024-02-21T12:06:44;9.70;99.90
19734;DHT22;10018;51.230;7.860;2024-02-21T12:09:14;9.80;99.90
19734;DHT22;10018;51.230;7.860;2024-02-21T12:11:39;9.80;99.90
19734;DHT22;10018;51.230;7.860;2024-02-21T12:14:05;9.90;99.90
19734;DHT22;10018;51.230;7.860;2024-02-21T12:16:32;9.90;99.90
19734;DHT22;10018;51.230;7.860;2024-02-21T12:18:59;9.90;99.90
19734;DHT22;10018;51.230;7.860;2024-02-21T12:21:33;9.80;99.90
19734;DHT22;10018;51.230;7.860;2024-02-21T12:24:12;9.60;99.90
19734;DHT22;10018;51.230;7.860;2024-02-21T12:26:38;9.60;99.90
19734;DHT22;10018;51.230;7.860;2024-02-21T12:29:03;9.50;99.90
19734;DHT22;10018;51.230;7.860;2024-02-21T12:31:29;9.60;99.90
19734;DHT22;10018;51.230;7.860;2024-02-21T12:33:55;9.60;99.90
19734;DHT22;10018;51.230;7.860;2024-02-21T12:36:20;9.50;99.90
19734;DHT22;10018;51.230;7.860;2024-02-21T12:38:46;9.50;99.90
19734;DHT22;10018;51.230;7.860;2024-02-21T12:41:16;9.50;99.90
19734;DHT22;10018;51.230;7.860;2024-02-21T12:43:42;9.50;99.90
19734;DHT22;10018;51.230;7.860;2024-02-21T12:46:08;9.40;99.90
19734;DHT22;10018;51.230;7.860;2024-02-21T12:48:33;9.50;99.90
19734;DHT22;10018;51.230;7.860;2024-02-21T12:50:59;9.50;99.90
19734;DHT22;10018;51.230;7.860;2024-02-21T12:53:25;9.50;99.90
19734;DHT22;10018;51.230;7.860;2024-02-21T12:55:51;9.60;99.90
19734;DHT22;10018;51.230;7.860;2024-02-21T12:58:17;9.70;99.90
19734;DHT22;10018;51.230;7.860;2024-02-21T13:00:42;9.80;99.90
19734;DHT22;10018;51.230;7.860;2024-02-21T13:03:08;9.90;99.90
19734;DHT22;10018;51.230;7.860;2024-02-21T13:05:39;9.90;99.90
19734;DHT22;10018;51.230;7.860;2024-02-21T13:08:06;9.90;99.90
19734;DHT22;10018;51.230;7.860;2024-02-21T13:10:32;9.90;99.90
19734;DHT22;10018;51.230;7.860;2024-02-21T13:13:00;9.90;99.90
19734;DHT22;10018;51.230;7.860;2024-02-21T13:15:26;9.80;99.90
19734;DHT22;10018;51.230;7.860;2024-02-21T13:17:53;9.90;99.90
19734;DHT22;10018;51.230;7.860;2024-02-21T13:20:19;9.90;99.90
19734;DHT22;10018;51.230;7.860;2024-02-21T13:22:45;9.90;99.90
19734;DHT22;10018;51.230;7.860;2024-02-21T13:25:10;9.90;99.90
19734;DHT22;10018;51.230;7.860;2024-02-21T13:27:40;9.90;99.90
19734;DHT22;10018;51.230;7.860;2024-02-21T13:30:06;9.90;99.90
19734;DHT22;10018;51.230;7.860;2024-02-21T13:32:34;9.90;99.90
19734;DHT22;10018;51.230;7.860;2024-02-21T13:34:59;9.90;99.90
19734;DHT22;10018;51.230;7.860;2024-02-21T13:37:27;9.90;99.90
19734;DHT22;10018;51.230;7.860;2024-02-21T13:39:53;10.00;99.90
19734;DHT22;10018;51.230;7.860;2024-02-21T13:42:19;9.90;99.90
19734;DHT22;10018;51.230;7.860;2024-02-21T13:44:45;9.80;99.90
19734;DHT22;10018;51.230;7.860;2024-02-21T13:47:13;9.90;99.90
19734;DHT22;10018;51.230;7.860;2024-02-21T13:49:39;9.80;99.90
19734;DHT22;10018;51.230;7.860;2024-02-21T13:52:05;9.80;99.90
19734;DHT22;10018;51.230;7.860;2024-02-21T13:54:30;9.90;99.90
19734;DHT22;10018;51.230;7.860;2024-02-21T13:56:58;10.00;99.90
19734;DHT22;10018;51.230;7.860;2024-02-21T13:59:24;10.00;99.90
19734;DHT22;10018;51.230;7.860;2024-02-21T14:01:49;10.00;99.90
19734;DHT22;10018;51.230;7.860;2024-02-21T14:04:15;10.00;99.90
19734;DHT22;10018;51.230;7.860;2024-02-21T14:06:41;9.90;99.90
19734;DHT22;10018;51.230;7.860;2024-02-21T14:09:12;10.00;99.90
19734;DHT22;10018;51.230;7.860;2024-02-21T14:11:37;10.00;99.90
19734;DHT22;10018;51.230;7.860;2024-02-21T14:14:04;10.00;99.90
19734;DHT22;10018;51.230;7.860;2024-02-21T14:16:30;10.00;99.90
19734;DHT22;10018;51.230;7.860;2024-02-21T14:18:55;10.00;99.90
19734;DHT22;10018;51.230;7.860;2024-02-21T14:21:21;10.00;99.90
19734;DHT22;10018;51.230;7.860;2024-02-21T14:23:47;10.00;99.90
19734;DHT22;10018;51.230;7.860;2024-02-21T14:26:15;10.00;99.90
19734;DHT22;10018;51.230;7.860;2024-02-21T14:28:41;10.10;99.90
19734;DHT22;10018;51.230;7.860;2024-02-21T14:31:09;10.10;99.90
19734;DHT22;10018;51.230;7.860;2024-02-21T14:33:35;10.10;99.90
19734;DHT22;10018;51.230;7.860;2024-02-21T14:36:01;10.20;99.90
19734;DHT22;10018;51.230;7.860;2024-02-21T14:38:28;10.10;99.90
19734;DHT22;10018;51.230;7.860;2024-02-21T14:40:53;10.10;99.90
19734;DHT22;10018;51.230;7.860;2024-02-21T14:43:19;10.10;99.90
19734;DHT22;10018;51.230;7.860;2024-02-21T14:45:48;10.10;99.90
19734;DHT22;10018;51.230;7.860;2024-02-21T14:48:14;10.00;99.90
19734;DHT22;10018;51.230;7.860;2024-02-21T14:50:40;10.00;99.90
19734;DHT22;10018;51.230;7.860;2024-02-21T14:53:06;10.10;99.90
19734;DHT22;10018;51.230;7.860;2024-02-21T14:55:33;10.10;99.90
19734;DHT22;10018;51.230;7.860;2024-02-21T14:57:59;10.00;99.90
19734;DHT22;10018;51.230;7.860;2024-02-21T15:00:24;10.00;99.90
19734;DHT22;10018;51.230;7.860;2024-02-21T15:02:56;10.00;99.90
19734;DHT22;10018;51.230;7.860;2024-02-21T15:05:24;10.00;99.90
19734;DHT22;10018;51.230;7.860;2024-02-21T15:07:50;10.00;99.90
19734;DHT22;10018;51.230;7.860;2024-02-21T15:10:16;10.10;99.90
19734;DHT22;10018;51.230;7.860;2024-02-21T15:12:45;10.10;99.90
19734;DHT22;10018;51.230;7.860;2024-02-21T15:15:10;10.20;99.90
19734;DHT22;10018;51.230;7.860;2024-02-21T15:17:36;10.20;99.90
19734;DHT22;10018;51.230;7.860;2024-02-21T15:20:02;10.20;99.90
19734;DHT22;10018;51.230;7.860;2024-02-21T15:22:30;10.10;99.90
19734;DHT22;10018;51.230;7.860;2024-02-21T15:24:55;10.20;99.90
19734;DHT22;10018;51.230;7.860;2024-02-21T15:27:21;10.10;99.90
19734;DHT22;10018;51.230;7.860;2024-02-21T15:29:46;10.10;99.90
19734;DHT22;10018;51.230;7.860;2024-02-21T15:32:12;10.00;99.90
19734;DHT22;10018;51.230;7.860;2024-02-21T15:34:38;10.10;99.90
19734;DHT22;10018;51.230;7.860;2024-02-21T15:37:04;10.10;99.90
19734;DHT22;10018;51.230;7.860;2024-02-21T15:39:29;10.10;99.90
19734;DHT22;10018;51.230;7.860;2024-02-21T15:41:57;10.10;99.90
19734;DHT22;10018;51.230;7.860;2024-02-21T15:44:23;10.10;99.90